Time;durP1;ratioP1;P1;durP2;ratioP2;P2;SDS_P1;SDS_P2;PMS_P1;PMS_P2;Temp;Humidity;BMP_temperature;BMP_pressure;BME280_temperature;BME280_humidity;BME280_pressure;Samples;Min_cycle;Max_cycle;Signal;HPM_P1;HPM_P2
2023/03/06 00:02:17;;;;;;;2.83;2.72;;;;;;;;;;5036228;28;20077;-21
2023/03/06 00:04:43;;;;;;;3.10;2.90;;;;;;;;;;5035995;28;20060;-21
2023/03/06 00:07:11;;;;;;;2.88;2.78;;;;;;;;;;5035580;28;20057;-23
2023/03/06 00:09:37;;;;;;;3.53;3.33;;;;;;;;;;5035916;28;20091;-21
2023/03/06 00:12:03;;;;;;;2.95;2.78;;;;;;;;;;5035772;28;20036;-21
2023/03/06 00:14:29;;;;;;;3.03;2.83;;;;;;;;;;5036080;28;20192;-21
2023/03/06 00:16:56;;;;;;;2.78;2.67;;;;;;;;;;5036011;28;20478;-22
2023/03/06 00:19:22;;;;;;;3.03;2.92;;;;;;;;;;5035688;28;20030;-22
2023/03/06 00:21:49;;;;;;;3.50;3.30;;;;;;;;;;5035830;28;20045;-23
2023/03/06 00:24:15;;;;;;;3.20;3.00;;;;;;;;;;5035879;28;20048;-22
2023/03/06 00:26:42;;;;;;;3.20;3.00;;;;;;;;;;5035493;28;20049;-20
2023/03/06 00:29:08;;;;;;;2.92;2.83;;;;;;;;;;5035786;28;20030;-22
2023/03/06 00:31:34;;;;;;;3.10;2.95;;;;;;;;;;5035463;28;20025;-21
2023/03/06 00:34:01;;;;;;;3.30;3.10;;;;;;;;;;5035311;28;20018;-21
2023/03/06 00:36:27;;;;;;;3.10;3.00;;;;;;;;;;5035411;28;20100;-23
2023/03/06 00:38:53;;;;;;;3.20;3.00;;;;;;;;;;5035906;28;20026;-22
2023/03/06 00:41:19;;;;;;;3.08;2.88;;;;;;;;;;5035286;28;20025;-21
2023/03/06 00:43:45;;;;;;;3.22;3.03;;;;;;;;;;5035472;28;20092;-21
2023/03/06 00:46:11;;;;;;;3.45;3.25;;;;;;;;;;5035960;28;20028;-21
2023/03/06 00:48:37;;;;;;;3.00;2.90;;;;;;;;;;5035110;28;20324;-21
2023/03/06 00:51:04;;;;;;;3.03;2.92;;;;;;;;;;5034739;28;20470;-20
2023/03/06 00:53:30;;;;;;;2.70;2.60;;;;;;;;;;5034851;28;20021;-20
2023/03/06 00:55:56;;;;;;;2.80;2.70;;;;;;;;;;5035034;28;20029;-20
2023/03/06 00:58:22;;;;;;;2.75;2.65;;;;;;;;;;5035533;28;20386;-23
2023/03/06 01:00:48;;;;;;;3.42;3.22;;;;;;;;;;5034936;28;20121;-21
2023/03/06 01:03:15;;;;;;;2.72;2.63;;;;;;;;;;5034845;28;20025;-21
2023/03/06 01:05:41;;;;;;;3.03;2.92;;;;;;;;;;5035146;28;20406;-23
2023/03/06 01:08:07;;;;;;;3.22;3.03;;;;;;;;;;5034616;28;20041;-28
2023/03/06 01:10:37;;;;;;;2.75;2.65;;;;;;;;;;5035090;28;20026;-25
2023/03/06 01:13:03;;;;;;;2.78;2.67;;;;;;;;;;5034649;28;20030;-21
2023/03/06 01:15:29;;;;;;;2.83;2.72;;;;;;;;;;5034658;28;20168;-27
2023/03/06 01:17:55;;;;;;;2.58;2.47;;;;;;;;;;5034943;28;20361;-21
2023/03/06 01:20:21;;;;;;;2.80;2.70;;;;;;;;;;5035184;28;20359;-21
2023/03/06 01:22:47;;;;;;;3.15;2.95;;;;;;;;;;5034907;28;20025;-21
2023/03/06 01:25:13;;;;;;;3.05;2.95;;;;;;;;;;5034881;28;20037;-20
2023/03/06 01:27:40;;;;;;;2.70;2.60;;;;;;;;;;5034454;28;20036;-22
2023/03/06 01:30:06;;;;;;;3.20;3.00;;;;;;;;;;5035119;28;20036;-20
2023/03/06 01:32:33;;;;;;;2.63;2.53;;;;;;;;;;5035010;28;20017;-21
2023/03/06 01:34:59;;;;;;;3.25;3.05;;;;;;;;;;5034576;28;20022;-21
2023/03/06 01:37:25;;;;;;;3.40;3.20;;;;;;;;;;5034506;28;20102;-21
2023/03/06 01:39:51;;;;;;;2.80;2.70;;;;;;;;;;5034985;28;20104;-21
2023/03/06 01:42:17;;;;;;;3.03;2.90;;;;;;;;;;5016999;28;20035;-25
2023/03/06 01:44:59;;;;;;;2.83;2.72;;;;;;;;;;5034467;28;20033;-20
2023/03/06 01:47:26;;;;;;;2.72;2.63;;;;;;;;;;5034574;28;20056;-20
2023/03/06 01:49:53;;;;;;;2.85;2.65;;;;;;;;;;5034622;28;20362;-20
2023/03/06 01:52:21;;;;;;;3.13;2.92;;;;;;;;;;5035289;28;20033;-21
2023/03/06 01:54:50;;;;;;;3.45;3.25;;;;;;;;;;5034586;28;20406;-24
2023/03/06 01:57:16;;;;;;;2.90;2.80;;;;;;;;;;5034256;28;20030;-20
2023/03/06 01:59:42;;;;;;;3.03;2.92;;;;;;;;;;5034269;28;20029;-21
2023/03/06 02:02:09;;;;;;;2.78;2.67;;;;;;;;;;5034458;28;20119;-21
2023/03/06 02:04:38;;;;;;;3.00;2.85;;;;;;;;;;5036780;28;20040;-21
2023/03/06 02:07:05;;;;;;;2.70;2.60;;;;;;;;;;5037883;28;20102;-23
2023/03/06 02:09:33;;;;;;;3.67;3.47;;;;;;;;;;5038094;28;20025;-20
2023/03/06 02:12:05;;;;;;;3.03;2.92;;;;;;;;;;5038017;28;20037;-23
2023/03/06 02:14:32;;;;;;;2.95;2.83;;;;;;;;;;5038566;28;20033;-21
2023/03/06 02:16:58;;;;;;;2.92;2.80;;;;;;;;;;5038051;28;20030;-21
2023/03/06 02:19:29;;;;;;;3.15;3.05;;;;;;;;;;5020505;28;20026;-20
2023/03/06 02:21:56;;;;;;;3.45;3.25;;;;;;;;;;5038171;28;20029;-21
2023/03/06 02:24:27;;;;;;;2.60;2.50;;;;;;;;;;5038131;28;20036;-21
2023/03/06 02:26:54;;;;;;;2.63;2.53;;;;;;;;;;5038375;28;20021;-24
2023/03/06 02:29:28;;;;;;;3.10;2.92;;;;;;;;;;5037794;28;20093;-22
2023/03/06 02:31:54;;;;;;;2.67;2.55;;;;;;;;;;5037932;28;20316;-20
2023/03/06 02:34:20;;;;;;;2.92;2.72;;;;;;;;;;5037727;28;20403;-21
2023/03/06 02:36:51;;;;;;;2.67;2.58;;;;;;;;;;5037660;28;20029;-22
2023/03/06 02:39:23;;;;;;;3.13;3.03;;;;;;;;;;5037925;28;20049;-26
2023/03/06 02:41:49;;;;;;;3.20;3.00;;;;;;;;;;5037781;28;20100;-21
2023/03/06 02:44:15;;;;;;;2.95;2.85;;;;;;;;;;5037500;28;20033;-24
2023/03/06 02:46:41;;;;;;;2.97;2.78;;;;;;;;;;5037951;28;20462;-24
2023/03/06 02:49:07;;;;;;;3.17;2.50;;;;;;;;;;5037664;28;20041;-20
2023/03/06 02:51:34;;;;;;;3.35;3.15;;;;;;;;;;5037662;28;20390;-22
2023/03/06 02:54:00;;;;;;;2.95;2.83;;;;;;;;;;5037275;28;20032;-21
2023/03/06 02:56:26;;;;;;;2.80;2.70;;;;;;;;;;5037304;28;20040;-20
2023/03/06 02:58:52;;;;;;;2.63;2.53;;;;;;;;;;5037260;28;20125;-22
2023/03/06 03:01:18;;;;;;;2.67;2.58;;;;;;;;;;5037203;28;20362;-23
2023/03/06 03:03:44;;;;;;;3.22;3.03;;;;;;;;;;5037107;28;20029;-21
2023/03/06 03:06:10;;;;;;;2.72;2.60;;;;;;;;;;5037395;28;20032;-21
2023/03/06 03:08:36;;;;;;;2.42;2.33;;;;;;;;;;5036774;28;20363;-21
2023/03/06 03:11:03;;;;;;;2.30;2.20;;;;;;;;;;5037332;28;20026;-21
2023/03/06 03:13:29;;;;;;;2.83;2.72;;;;;;;;;;5036840;28;20029;-22
2023/03/06 03:16:03;;;;;;;3.05;2.85;;;;;;;;;;5036652;28;20357;-22
2023/03/06 03:18:29;;;;;;;3.35;3.15;;;;;;;;;;5037211;28;20087;-21
2023/03/06 03:20:56;;;;;;;3.28;3.17;;;;;;;;;;5037134;28;20040;-23
2023/03/06 03:23:22;;;;;;;2.70;2.60;;;;;;;;;;5036741;28;20029;-26
2023/03/06 03:25:48;;;;;;;3.15;3.03;;;;;;;;;;5037021;28;20095;-24
2023/03/06 03:28:14;;;;;;;3.42;3.22;;;;;;;;;;5037169;28;20044;-21
2023/03/06 03:30:41;;;;;;;2.83;2.72;;;;;;;;;;5036655;28;20037;-21
2023/03/06 03:33:07;;;;;;;4.10;3.22;;;;;;;;;;5036843;28;20323;-21
2023/03/06 03:35:33;;;;;;;3.17;3.08;;;;;;;;;;5036607;28;20018;-25
2023/03/06 03:38:00;;;;;;;3.47;3.28;;;;;;;;;;5036812;28;20358;-21
2023/03/06 03:40:26;;;;;;;2.90;2.80;;;;;;;;;;5036465;28;20036;-22
2023/03/06 03:42:52;;;;;;;3.35;3.22;;;;;;;;;;5036643;28;20327;-21
2023/03/06 03:45:18;;;;;;;3.03;2.92;;;;;;;;;;5036374;28;20033;-20
2023/03/06 03:47:44;;;;;;;2.88;2.78;;;;;;;;;;5036327;28;20079;-21
2023/03/06 03:50:11;;;;;;;2.80;2.70;;;;;;;;;;5036256;28;20489;-22
2023/03/06 03:52:37;;;;;;;3.00;2.90;;;;;;;;;;5036553;28;20026;-21
2023/03/06 03:55:03;;;;;;;3.08;2.92;;;;;;;;;;5036463;28;20113;-21
2023/03/06 03:57:30;;;;;;;2.97;2.88;;;;;;;;;;5036137;28;20033;-21
2023/03/06 03:59:56;;;;;;;2.83;2.70;;;;;;;;;;5018728;28;20482;-23
2023/03/06 04:02:22;;;;;;;3.25;3.05;;;;;;;;;;5035991;28;20473;-21
2023/03/06 04:04:48;;;;;;;3.17;2.97;;;;;;;;;;5036314;28;20413;-21
2023/03/06 04:07:14;;;;;;;2.95;2.83;;;;;;;;;;5035718;28;20057;-23
2023/03/06 04:09:41;;;;;;;2.97;2.88;;;;;;;;;;5036467;28;20021;-22
2023/03/06 04:12:07;;;;;;;3.42;3.22;;;;;;;;;;5036083;28;20022;-23
2023/03/06 04:14:33;;;;;;;3.47;3.28;;;;;;;;;;5036117;28;20349;-24
2023/03/06 04:16:59;;;;;;;3.03;2.83;;;;;;;;;;5035779;28;20357;-22
2023/03/06 04:19:25;;;;;;;2.70;2.50;;;;;;;;;;5035729;28;20060;-21
2023/03/06 04:21:52;;;;;;;2.50;2.40;;;;;;;;;;5035898;28;20104;-20
2023/03/06 04:24:18;;;;;;;2.65;2.55;;;;;;;;;;5035635;28;20134;-23
2023/03/06 04:26:44;;;;;;;3.08;2.88;;;;;;;;;;5035703;28;20064;-21
2023/03/06 04:29:10;;;;;;;2.80;2.70;;;;;;;;;;5035548;28;20095;-21
2023/03/06 04:31:36;;;;;;;2.80;2.65;;;;;;;;;;5035481;28;20021;-22
2023/03/06 04:34:02;;;;;;;3.33;3.15;;;;;;;;;;5035382;28;20025;-23
2023/03/06 04:36:30;;;;;;;3.13;3.00;;;;;;;;;;5035705;28;20442;-22
2023/03/06 04:38:56;;;;;;;2.90;2.80;;;;;;;;;;5035282;28;20029;-21
2023/03/06 04:41:22;;;;;;;3.40;3.20;;;;;;;;;;5035264;28;20067;-21
2023/03/06 04:43:48;;;;;;;3.28;3.08;;;;;;;;;;5035091;28;20021;-21
2023/03/06 04:46:15;;;;;;;3.00;2.90;;;;;;;;;;5035162;28;20033;-22
2023/03/06 04:48:41;;;;;;;3.53;3.33;;;;;;;;;;5035339;28;20359;-25
2023/03/06 04:51:08;;;;;;;2.85;2.75;;;;;;;;;;5035313;28;20025;-22
2023/03/06 04:53:34;;;;;;;3.65;3.33;;;;;;;;;;5034939;28;20036;-23
2023/03/06 04:56:00;;;;;;;3.17;2.97;;;;;;;;;;5034962;28;20053;-21
2023/03/06 04:58:26;;;;;;;3.20;3.00;;;;;;;;;;5035218;28;20138;-23
2023/03/06 05:00:53;;;;;;;3.03;2.92;;;;;;;;;;5035056;28;20029;-22
2023/03/06 05:03:19;;;;;;;2.67;2.58;;;;;;;;;;5034973;28;20108;-21
2023/03/06 05:05:45;;;;;;;3.15;3.03;;;;;;;;;;5035078;28;20453;-23
2023/03/06 05:08:14;;;;;;;3.42;3.33;;;;;;;;;;5034582;28;20049;-20
2023/03/06 05:10:40;;;;;;;3.03;2.90;;;;;;;;;;5035062;28;20417;-21
2023/03/06 05:13:06;;;;;;;3.33;3.13;;;;;;;;;;5034583;28;20041;-21
2023/03/06 05:15:32;;;;;;;3.00;2.90;;;;;;;;;;5034687;28;20423;-21
2023/03/06 05:17:59;;;;;;;3.17;2.97;;;;;;;;;;5034711;28;20041;-22
2023/03/06 05:20:27;;;;;;;3.08;2.97;;;;;;;;;;5034565;28;20103;-21
2023/03/06 05:22:53;;;;;;;3.17;2.97;;;;;;;;;;5034414;28;20029;-21
2023/03/06 05:25:19;;;;;;;2.95;2.85;;;;;;;;;;5034572;28;20033;-21
2023/03/06 05:27:45;;;;;;;2.90;2.80;;;;;;;;;;5034385;28;20025;-21
2023/03/06 05:30:12;;;;;;;3.08;2.90;;;;;;;;;;5034416;28;20018;-21
2023/03/06 05:32:38;;;;;;;3.90;3.70;;;;;;;;;;5034381;28;20045;-22
2023/03/06 05:35:05;;;;;;;3.58;3.38;;;;;;;;;;5034841;28;20405;-22
2023/03/06 05:37:31;;;;;;;3.58;3.38;;;;;;;;;;5033920;28;20108;-21
2023/03/06 05:39:58;;;;;;;3.15;3.00;;;;;;;;;;5034171;28;20072;-21
2023/03/06 05:42:24;;;;;;;3.35;3.15;;;;;;;;;;5034236;28;20052;-21
2023/03/06 05:44:50;;;;;;;2.92;2.83;;;;;;;;;;5034319;28;20032;-22
2023/03/06 05:47:16;;;;;;;3.25;3.05;;;;;;;;;;5016843;28;20029;-22
2023/03/06 05:49:42;;;;;;;3.67;3.47;;;;;;;;;;5034213;28;20022;-22
2023/03/06 05:52:08;;;;;;;3.55;3.35;;;;;;;;;;5033999;28;20656;-21
2023/03/06 05:54:36;;;;;;;3.67;3.38;;;;;;;;;;5034445;28;20048;-24
2023/03/06 05:57:03;;;;;;;22.27;3.65;;;;;;;;;;5034606;28;20077;-22
2023/03/06 05:59:31;;;;;;;3.83;3.50;;;;;;;;;;5034280;28;20347;-25
2023/03/06 06:04:33;;;;;;;3.92;3.53;;;;;;;;;;5352100;22;20542;-24
2023/03/06 06:07:00;;;;;;;4.22;3.40;;;;;;;;;;5014282;28;20037;-24
2023/03/06 06:09:26;;;;;;;3.75;3.55;;;;;;;;;;5014512;28;20089;-24
2023/03/06 06:11:57;;;;;;;13.43;4.40;;;;;;;;;;4996937;28;20049;-25
2023/03/06 06:14:24;;;;;;;4.80;3.33;;;;;;;;;;5026722;28;20342;-24
2023/03/06 06:16:50;;;;;;;11.15;4.03;;;;;;;;;;5034031;28;20025;-24
2023/03/06 06:19:19;;;;;;;4.78;3.40;;;;;;;;;;5033839;28;20040;-25
2023/03/06 06:21:47;;;;;;;3.95;3.00;;;;;;;;;;5034114;28;20108;-25
2023/03/06 06:24:13;;;;;;;5.88;3.75;;;;;;;;;;5033964;28;20172;-25
2023/03/06 06:26:41;;;;;;;9.57;3.70;;;;;;;;;;5034245;28;20041;-25
2023/03/06 06:29:07;;;;;;;3.92;3.40;;;;;;;;;;5033930;28;20345;-26
2023/03/06 06:31:35;;;;;;;3.42;3.13;;;;;;;;;;5016237;28;20026;-25
2023/03/06 06:34:02;;;;;;;4.93;3.40;;;;;;;;;;5033518;28;20026;-25
2023/03/06 06:36:28;;;;;;;4.82;3.53;;;;;;;;;;5033695;28;20030;-25
2023/03/06 06:38:55;;;;;;;4.95;3.75;;;;;;;;;;5033777;28;20026;-26
2023/03/06 06:41:21;;;;;;;4.15;3.85;;;;;;;;;;5033553;28;20057;-26
2023/03/06 06:43:47;;;;;;;5.03;3.75;;;;;;;;;;5033848;28;20311;-24
2023/03/06 06:46:13;;;;;;;8.57;4.75;;;;;;;;;;5016391;28;20080;-24
2023/03/06 06:48:39;;;;;;;6.55;4.13;;;;;;;;;;5033871;28;20025;-25
2023/03/06 06:51:05;;;;;;;5.47;3.85;;;;;;;;;;5019017;28;20030;-25
2023/03/06 06:53:32;;;;;;;5.35;3.33;;;;;;;;;;5037020;28;20083;-26
2023/03/06 06:55:59;;;;;;;3.15;2.95;;;;;;;;;;5037019;28;20064;-25
2023/03/06 06:58:25;;;;;;;4.68;4.15;;;;;;;;;;5037213;28;20133;-23
2023/03/06 07:00:51;;;;;;;4.32;3.90;;;;;;;;;;5019507;28;20022;-26
2023/03/06 07:03:17;;;;;;;12.77;3.95;;;;;;;;;;5036989;28;20025;-23
2023/03/06 07:05:44;;;;;;;5.10;4.45;;;;;;;;;;5037302;28;20377;-23
2023/03/06 07:08:10;;;;;;;6.80;4.13;;;;;;;;;;5036766;28;20041;-24
2023/03/06 07:10:38;;;;;;;8.98;4.35;;;;;;;;;;5036952;28;20331;-24
2023/03/06 07:13:04;;;;;;;4.30;3.38;;;;;;;;;;5036872;28;20013;-24
2023/03/06 07:15:30;;;;;;;3.20;3.00;;;;;;;;;;5036873;28;20029;-24
2023/03/06 07:17:57;;;;;;;4.20;3.78;;;;;;;;;;5037009;28;20108;-24
2023/03/06 07:20:23;;;;;;;17.90;5.75;;;;;;;;;;5036749;28;20030;-25
2023/03/06 07:22:49;;;;;;;4.90;4.50;;;;;;;;;;5036642;28;20121;-24
2023/03/06 07:25:15;;;;;;;5.25;3.30;;;;;;;;;;5036487;28;20037;-24
2023/03/06 07:27:41;;;;;;;8.07;3.58;;;;;;;;;;5037036;28;20417;-24
2023/03/06 07:30:08;;;;;;;5.65;4.40;;;;;;;;;;5036851;28;20049;-24
2023/03/06 07:32:34;;;;;;;5.97;4.32;;;;;;;;;;5037473;28;20308;-25
2023/03/06 07:35:00;;;;;;;6.57;4.00;;;;;;;;;;5036391;28;20026;-25
2023/03/06 07:37:27;;;;;;;5.03;4.50;;;;;;;;;;5036166;28;20100;-25
2023/03/06 07:39:53;;;;;;;4.28;3.88;;;;;;;;;;5036451;28;20040;-24
2023/03/06 07:42:19;;;;;;;7.28;4.07;;;;;;;;;;5036223;28;20025;-24
2023/03/06 07:44:46;;;;;;;5.63;3.40;;;;;;;;;;5036061;28;20032;-25
2023/03/06 07:47:13;;;;;;;6.40;4.20;;;;;;;;;;5036143;28;20033;-24
2023/03/06 07:49:39;;;;;;;7.47;4.60;;;;;;;;;;5035845;28;20099;-24
2023/03/06 07:52:05;;;;;;;8.40;4.63;;;;;;;;;;5035941;28;20092;-25
2023/03/06 07:54:31;;;;;;;11.25;4.80;;;;;;;;;;5036125;28;20051;-25
2023/03/06 07:56:57;;;;;;;17.05;4.25;;;;;;;;;;5036282;28;20353;-25
2023/03/06 07:59:24;;;;;;;8.30;3.65;;;;;;;;;;5035733;28;20045;-25
2023/03/06 08:01:50;;;;;;;4.95;3.85;;;;;;;;;;5018019;28;20112;-24
2023/03/06 08:04:16;;;;;;;5.45;3.60;;;;;;;;;;5035494;28;20381;-24
2023/03/06 08:06:43;;;;;;;4.57;3.80;;;;;;;;;;5035765;28;20407;-25
2023/03/06 08:09:09;;;;;;;5.28;3.80;;;;;;;;;;5035635;28;20053;-24
2023/03/06 08:11:35;;;;;;;6.53;4.00;;;;;;;;;;5035940;28;20052;-24
2023/03/06 08:14:01;;;;;;;8.80;4.43;;;;;;;;;;5035858;28;20044;-25
2023/03/06 08:16:28;;;;;;;8.77;4.00;;;;;;;;;;5036132;28;20117;-25
2023/03/06 08:18:55;;;;;;;5.47;3.47;;;;;;;;;;5035536;28;20346;-25
2023/03/06 08:21:23;;;;;;;2.97;2.78;;;;;;;;;;5036009;28;20049;-25
2023/03/06 08:23:49;;;;;;;7.72;3.42;;;;;;;;;;5035173;28;20026;-25
2023/03/06 08:26:16;;;;;;;4.07;3.30;;;;;;;;;;5035734;28;20025;-25
2023/03/06 08:28:43;;;;;;;5.82;4.00;;;;;;;;;;5035173;28;20454;-25
2023/03/06 08:31:10;;;;;;;4.78;3.78;;;;;;;;;;5035334;28;20519;-24
2023/03/06 08:33:37;;;;;;;6.90;3.80;;;;;;;;;;5035063;28;20034;-25
2023/03/06 08:36:03;;;;;;;4.85;4.07;;;;;;;;;;5035280;28;20450;-25
2023/03/06 08:38:29;;;;;;;6.00;4.75;;;;;;;;;;5034930;28;20096;-25
2023/03/06 08:40:55;;;;;;;12.57;4.20;;;;;;;;;;5017588;28;20477;-25
2023/03/06 08:43:21;;;;;;;6.68;3.72;;;;;;;;;;5035089;28;20029;-24
2023/03/06 08:45:51;;;;;;;9.68;4.35;;;;;;;;;;5034919;28;20022;-24
2023/03/06 08:48:18;;;;;;;11.03;4.23;;;;;;;;;;5035171;28;20095;-25
2023/03/06 08:50:44;;;;;;;8.38;3.75;;;;;;;;;;5034927;28;20264;-24
2023/03/06 08:53:10;;;;;;;13.63;4.45;;;;;;;;;;5034821;28;20018;-25
2023/03/06 08:55:37;;;;;;;5.63;4.45;;;;;;;;;;5034807;28;20027;-24
2023/03/06 08:58:03;;;;;;;7.72;4.60;;;;;;;;;;5034818;28;20041;-24
2023/03/06 09:00:30;;;;;;;7.45;4.43;;;;;;;;;;5017267;28;20030;-25
2023/03/06 09:02:56;;;;;;;4.68;4.28;;;;;;;;;;5034822;28;20032;-25
2023/03/06 09:05:22;;;;;;;8.30;4.00;;;;;;;;;;5017148;28;20527;-24
2023/03/06 09:07:48;;;;;;;8.15;3.97;;;;;;;;;;5034519;28;20029;-25
2023/03/06 09:10:16;;;;;;;10.45;3.80;;;;;;;;;;5034878;28;20343;-25
2023/03/06 09:12:43;;;;;;;9.20;4.07;;;;;;;;;;5016683;28;20049;-24
2023/03/06 09:15:09;;;;;;;14.48;4.38;;;;;;;;;;5034683;28;20018;-25
2023/03/06 09:17:35;;;;;;;5.57;4.93;;;;;;;;;;5034373;28;20378;-24
2023/03/06 09:20:02;;;;;;;17.17;4.78;;;;;;;;;;5034553;28;20505;-24
2023/03/06 09:22:28;;;;;;;12.57;4.97;;;;;;;;;;5016874;28;20512;-25
2023/03/06 09:24:54;;;;;;;12.23;4.32;;;;;;;;;;5034262;28;20045;-25
2023/03/06 09:27:21;;;;;;;13.75;4.22;;;;;;;;;;5034179;28;20040;-24
2023/03/06 09:29:48;;;;;;;11.05;4.63;;;;;;;;;;5034412;28;20080;-24
2023/03/06 09:32:14;;;;;;;6.72;4.50;;;;;;;;;;5034336;28;20466;-24
2023/03/06 09:34:40;;;;;;;13.23;4.25;;;;;;;;;;5034246;28;20029;-24
2023/03/06 09:37:06;;;;;;;6.25;4.28;;;;;;;;;;5034484;28;20029;-24
2023/03/06 09:39:33;;;;;;;4.72;3.90;;;;;;;;;;5034138;28;20116;-24
2023/03/06 09:41:59;;;;;;;5.63;3.95;;;;;;;;;;5034172;28;20029;-25
2023/03/06 09:44:27;;;;;;;25.60;4.43;;;;;;;;;;5034103;28;20100;-25
2023/03/06 09:47:14;;;;;;;12.98;5.10;;;;;;;;;;5034122;28;20025;-25
2023/03/06 09:49:44;;;;;;;10.10;4.47;;;;;;;;;;5016829;28;20462;-25
2023/03/06 09:52:10;;;;;;;4.90;3.58;;;;;;;;;;5016737;28;20033;-24
2023/03/06 09:54:54;;;;;;;11.30;3.33;;;;;;;;;;5034288;28;20098;-37
2023/03/06 09:57:21;;;;;;;5.10;3.88;;;;;;;;;;5034171;28;20159;-24
2023/03/06 09:59:48;;;;;;;10.52;4.03;;;;;;;;;;5034364;28;20025;-25
2023/03/06 10:02:18;;;;;;;4.15;3.85;;;;;;;;;;5034220;28;20030;-24
2023/03/06 10:04:48;;;;;;;6.13;3.07;;;;;;;;;;5033845;28;20111;-24
2023/03/06 10:07:21;;;;;;;6.10;3.90;;;;;;;;;;5034170;28;20056;-25
2023/03/06 10:09:58;;;;;;;4.65;3.80;;;;;;;;;;5034007;28;20024;-24
2023/03/06 10:12:36;;;;;;;7.68;3.97;;;;;;;;;;5033889;28;20018;-24
2023/03/06 10:15:07;;;;;;;4.80;4.35;;;;;;;;;;5033905;28;20091;-24
2023/03/06 10:17:35;;;;;;;6.88;4.47;;;;;;;;;;5033854;28;20087;-24
2023/03/06 10:20:09;;;;;;;29.02;5.45;;;;;;;;;;5016410;28;20109;-24
2023/03/06 10:22:43;;;;;;;5.70;4.22;;;;;;;;;;5034196;28;20104;-25
2023/03/06 10:25:16;;;;;;;6.60;3.25;;;;;;;;;;5035526;28;20118;-24
2023/03/06 10:27:56;;;;;;;7.28;3.20;;;;;;;;;;5037580;28;20053;-24
2023/03/06 10:30:33;;;;;;;6.03;3.70;;;;;;;;;;5037871;28;20402;-24
2023/03/06 10:33:06;;;;;;;6.20;4.55;;;;;;;;;;5037706;28;20407;-25
2023/03/06 10:35:41;;;;;;;9.02;4.38;;;;;;;;;;5037630;28;20408;-24
2023/03/06 10:38:27;;;;;;;10.50;4.55;;;;;;;;;;5037809;28;20056;-24
2023/03/06 10:40:56;;;;;;;10.70;4.78;;;;;;;;;;5037544;28;20036;-25
2023/03/06 10:43:22;;;;;;;4.22;3.80;;;;;;;;;;5037633;28;20025;-25
2023/03/06 10:45:49;;;;;;;16.17;4.70;;;;;;;;;;5037320;28;20488;-25
2023/03/06 10:48:20;;;;;;;9.60;4.65;;;;;;;;;;5037195;28;20026;-24
2023/03/06 10:50:47;;;;;;;7.03;4.22;;;;;;;;;;5037079;28;20087;-25
2023/03/06 10:53:27;;;;;;;6.43;3.60;;;;;;;;;;5037370;28;20017;-24
2023/03/06 10:55:58;;;;;;;4.25;3.85;;;;;;;;;;5037541;28;20314;-24
2023/03/06 10:58:26;;;;;;;8.00;3.42;;;;;;;;;;5037305;28;20431;-25
2023/03/06 11:01:18;;;;;;;11.05;3.60;;;;;;;;;;5036977;28;20032;-24
2023/03/06 11:03:44;;;;;;;6.97;3.40;;;;;;;;;;5036701;28;20054;-24
2023/03/06 11:06:12;;;;;;;12.60;3.58;;;;;;;;;;5037183;28;20053;-25
2023/03/06 11:08:40;;;;;;;6.57;3.63;;;;;;;;;;5036910;28;20096;-25
2023/03/06 11:11:06;;;;;;;9.35;3.50;;;;;;;;;;5037143;28;20025;-24
2023/03/06 11:13:36;;;;;;;9.07;3.50;;;;;;;;;;5019307;28;20030;-25
2023/03/06 11:16:02;;;;;;;11.23;3.70;;;;;;;;;;5036831;28;20026;-25
2023/03/06 11:18:42;;;;;;;13.02;3.92;;;;;;;;;;5036906;28;20330;-25
2023/03/06 11:21:28;;;;;;;7.10;3.90;;;;;;;;;;5036932;28;20025;-25
2023/03/06 11:23:55;;;;;;;5.60;3.25;;;;;;;;;;5036589;28;20401;-25
2023/03/06 11:26:28;;;;;;;12.38;3.20;;;;;;;;;;5036895;28;20040;-25
2023/03/06 11:28:54;;;;;;;11.10;4.72;;;;;;;;;;5019141;28;20037;-25
2023/03/06 11:31:40;;;;;;;12.38;3.78;;;;;;;;;;5036604;28;20099;-25
2023/03/06 11:34:16;;;;;;;9.45;3.83;;;;;;;;;;5019532;28;20116;-25
2023/03/06 11:37:20;;;;;;;7.20;3.40;;;;;;;;;;5036319;28;20450;-25
2023/03/06 11:40:00;;;;;;;7.15;3.70;;;;;;;;;;4937963;29;20122;-25
2023/03/06 11:42:29;;;;;;;5.45;3.47;;;;;;;;;;4937800;29;20361;-25
2023/03/06 11:45:13;;;;;;;11.90;3.83;;;;;;;;;;4995036;28;20030;-25
2023/03/06 11:47:42;;;;;;;5.95;3.47;;;;;;;;;;5036351;28;20354;-25
2023/03/06 11:50:14;;;;;;;5.65;3.53;;;;;;;;;;5036176;28;20457;-25
2023/03/06 11:52:44;;;;;;;5.53;3.25;;;;;;;;;;5036198;28;20509;-25
2023/03/06 11:55:14;;;;;;;8.40;3.72;;;;;;;;;;5036029;28;20028;-25
2023/03/06 11:57:47;;;;;;;9.52;3.30;;;;;;;;;;5036423;28;20025;-25
2023/03/06 12:00:16;;;;;;;14.45;3.85;;;;;;;;;;5036313;28;20030;-25
2023/03/06 12:03:00;;;;;;;17.33;4.55;;;;;;;;;;5035948;28;20440;-25
2023/03/06 12:05:32;;;;;;;17.52;4.90;;;;;;;;;;5035688;28;20499;-25
2023/03/06 12:08:17;;;;;;;14.90;3.47;;;;;;;;;;5035985;28;20034;-25
2023/03/06 12:10:49;;;;;;;7.72;3.55;;;;;;;;;;5036160;28;20366;-26
2023/03/06 12:13:30;;;;;;;4.32;3.13;;;;;;;;;;5036032;28;20083;-25
2023/03/06 12:15:56;;;;;;;8.25;4.53;;;;;;;;;;5035985;28;20347;-25
2023/03/06 12:18:32;;;;;;;12.48;3.47;;;;;;;;;;5035651;28;20021;-25
2023/03/06 12:21:16;;;;;;;7.90;3.60;;;;;;;;;;5036399;28;20049;-25
2023/03/06 12:23:49;;;;;;;6.97;3.88;;;;;;;;;;5035743;28;20026;-25
2023/03/06 12:26:24;;;;;;;3.20;2.90;;;;;;;;;;5035382;28;20029;-25
2023/03/06 12:29:19;;;;;;;9.25;3.50;;;;;;;;;;5035174;28;20108;-25
2023/03/06 12:32:01;;;;;;;6.45;3.67;;;;;;;;;;4948723;28;20111;-25
2023/03/06 12:34:27;;;;;;;;;;;;;;;;;;5036184;28;20060;-25
2023/03/06 12:37:01;;;;;;;4.30;3.55;;;;;;;;;;5035291;28;20338;-25
2023/03/06 12:39:39;;;;;;;3.20;2.88;;;;;;;;;;5017889;28;20100;-25
2023/03/06 12:42:11;;;;;;;5.70;3.15;;;;;;;;;;5035297;28;20017;-25
2023/03/06 12:44:47;;;;;;;4.03;3.38;;;;;;;;;;5035471;28;20354;-25
2023/03/06 12:47:21;;;;;;;8.57;3.80;;;;;;;;;;5034248;28;20064;-25
2023/03/06 12:49:52;;;;;;;7.88;4.22;;;;;;;;;;5035025;28;20353;-25
2023/03/06 12:52:22;;;;;;;6.55;4.38;;;;;;;;;;5034655;28;20029;-25
2023/03/06 12:54:48;;;;;;;13.50;4.45;;;;;;;;;;5034764;28;20022;-25
2023/03/06 12:57:15;;;;;;;7.50;3.10;;;;;;;;;;5035043;28;20131;-25
2023/03/06 12:59:48;;;;;;;4.68;3.42;;;;;;;;;;5034896;28;20097;-25
2023/03/06 13:02:24;;;;;;;8.70;3.92;;;;;;;;;;5017405;28;20099;-25
2023/03/06 13:05:04;;;;;;;7.95;3.45;;;;;;;;;;5034727;28;20041;-25
2023/03/06 13:07:42;;;;;;;8.40;5.35;;;;;;;;;;5034899;28;20099;-25
2023/03/06 13:10:27;;;;;;;8.82;4.55;;;;;;;;;;5034561;28;20500;-25
2023/03/06 13:12:54;;;;;;;13.35;4.40;;;;;;;;;;5034457;28;20041;-25
2023/03/06 13:15:23;;;;;;;4.38;3.85;;;;;;;;;;5034778;28;20025;-25
2023/03/06 13:17:49;;;;;;;9.93;4.15;;;;;;;;;;5034329;28;20029;-25
2023/03/06 13:20:15;;;;;;;8.75;4.70;;;;;;;;;;5034904;28;20029;-25
2023/03/06 13:22:43;;;;;;;10.88;4.68;;;;;;;;;;5034694;28;20040;-25
2023/03/06 13:25:18;;;;;;;5.95;4.20;;;;;;;;;;5034574;28;20022;-25
2023/03/06 13:27:44;;;;;;;8.43;4.65;;;;;;;;;;5034395;28;20060;-25
2023/03/06 13:30:21;;;;;;;7.22;4.22;;;;;;;;;;5034744;28;20028;-25
2023/03/06 13:32:48;;;;;;;6.32;4.30;;;;;;;;;;5034769;28;20021;-25
2023/03/06 13:35:47;;;;;;;9.07;4.10;;;;;;;;;;5034277;28;20021;-25
2023/03/06 13:38:33;;;;;;;13.93;4.15;;;;;;;;;;4964338;28;20144;-25
2023/03/06 13:41:18;;;;;;;11.85;4.55;;;;;;;;;;4985050;28;20029;-25
2023/03/06 13:43:45;;;;;;;8.77;4.65;;;;;;;;;;5034171;28;20049;-25
2023/03/06 13:46:24;;;;;;;10.70;4.32;;;;;;;;;;5034246;28;20029;-25
2023/03/06 13:49:02;;;;;;;9.20;4.30;;;;;;;;;;5034315;28;20022;-25
2023/03/06 13:51:33;;;;;;;9.00;4.00;;;;;;;;;;5034514;28;20026;-25
2023/03/06 13:54:14;;;;;;;8.60;3.80;;;;;;;;;;5034435;28;20018;-25
2023/03/06 13:56:59;;;;;;;12.45;4.22;;;;;;;;;;5034388;28;20026;-25
2023/03/06 13:59:25;;;;;;;5.85;3.55;;;;;;;;;;5036425;28;20025;-25
2023/03/06 14:02:10;;;;;;;7.88;3.90;;;;;;;;;;5038475;28;20350;-25
2023/03/06 14:05:08;;;;;;;8.23;4.25;;;;;;;;;;5037937;28;20045;-25
2023/03/06 14:07:40;;;;;;;8.73;4.43;;;;;;;;;;4984430;28;20041;-25
2023/03/06 14:10:12;;;;;;;7.65;4.20;;;;;;;;;;5037977;28;20052;-25
2023/03/06 14:12:41;;;;;;;9.90;4.07;;;;;;;;;;5038016;28;20044;-25
2023/03/06 14:15:23;;;;;;;5.50;3.85;;;;;;;;;;5038274;28;20410;-25
2023/03/06 14:18:00;;;;;;;5.63;3.65;;;;;;;;;;5038305;28;20025;-25
2023/03/06 14:20:38;;;;;;;11.35;4.05;;;;;;;;;;5020441;28;20029;-25
2023/03/06 14:23:23;;;;;;;9.75;4.97;;;;;;;;;;5020318;28;20115;-25
2023/03/06 14:26:16;;;;;;;5.38;3.80;;;;;;;;;;5038384;28;20324;-25
2023/03/06 14:28:43;;;;;;;5.53;3.13;;;;;;;;;;5037718;28;20035;-25
2023/03/06 14:31:20;;;;;;;4.93;3.67;;;;;;;;;;5038090;28;20339;-25
2023/03/06 14:33:54;;;;;;;4.63;3.08;;;;;;;;;;5038182;28;20041;-25
2023/03/06 14:36:21;;;;;;;12.65;3.22;;;;;;;;;;5037927;28;20107;-25
2023/03/06 14:38:56;;;;;;;5.03;3.30;;;;;;;;;;5037806;28;20109;-25
2023/03/06 14:41:24;;;;;;;4.22;3.90;;;;;;;;;;5037826;28;20036;-25
2023/03/06 14:43:50;;;;;;;5.25;3.15;;;;;;;;;;5037645;28;20397;-25
2023/03/06 14:46:18;;;;;;;4.57;3.58;;;;;;;;;;5037396;28;20088;-25
2023/03/06 14:48:46;;;;;;;4.63;3.83;;;;;;;;;;5037182;28;20025;-25
2023/03/06 14:51:16;;;;;;;4.35;3.05;;;;;;;;;;5037353;28;20024;-25
2023/03/06 14:53:43;;;;;;;8.38;5.05;;;;;;;;;;5019816;28;20021;-25
2023/03/06 14:56:13;;;;;;;5.18;3.55;;;;;;;;;;5037283;28;20071;-25